sensor_id;sensor_type;location;lat;lon;timestamp;temperature;humidity
13835;DHT22;6988;52.614;13.500;2022-11-15T00:02:34;3.70;99.90
13835;DHT22;6988;52.614;13.500;2022-11-15T00:07:46;3.70;99.90
13835;DHT22;6988;52.614;13.500;2022-11-15T00:12:56;3.70;99.90
13835;DHT22;6988;52.614;13.500;2022-11-15T00:18:12;3.80;99.90
13835;DHT22;6988;52.614;13.500;2022-11-15T00:23:25;3.80;99.90
13835;DHT22;6988;52.614;13.500;2022-11-15T00:28:36;3.70;99.90
13835;DHT22;6988;52.614;13.500;2022-11-15T00:33:46;3.70;99.90
13835;DHT22;6988;52.614;13.500;2022-11-15T00:38:58;3.70;99.90
13835;DHT22;6988;52.614;13.500;2022-11-15T00:44:09;3.70;99.90
13835;DHT22;6988;52.614;13.500;2022-11-15T00:49:20;3.80;99.90
13835;DHT22;6988;52.614;13.500;2022-11-15T00:54:32;3.80;99.90
13835;DHT22;6988;52.614;13.500;2022-11-15T00:59:43;3.80;99.90
13835;DHT22;6988;52.614;13.500;2022-11-15T01:04:54;3.90;99.90
13835;DHT22;6988;52.614;13.500;2022-11-15T01:10:07;3.70;99.90
13835;DHT22;6988;52.614;13.500;2022-11-15T01:15:18;3.60;99.90
13835;DHT22;6988;52.614;13.500;2022-11-15T01:20:28;3.70;99.90
13835;DHT22;6988;52.614;13.500;2022-11-15T01:25:40;3.90;99.90
13835;DHT22;6988;52.614;13.500;2022-11-15T01:30:51;3.90;99.90
13835;DHT22;6988;52.614;13.500;2022-11-15T01:36:03;3.80;99.90
13835;DHT22;6988;52.614;13.500;2022-11-15T01:41:18;3.70;99.90
13835;DHT22;6988;52.614;13.500;2022-11-15T01:46:32;3.70;99.90
13835;DHT22;6988;52.614;13.500;2022-11-15T01:51:45;3.60;99.90
13835;DHT22;6988;52.614;13.500;2022-11-15T01:57:00;3.60;99.90
13835;DHT22;6988;52.614;13.500;2022-11-15T02:02:13;3.50;99.90
13835;DHT22;6988;52.614;13.500;2022-11-15T02:07:25;3.50;99.90
13835;DHT22;6988;52.614;13.500;2022-11-15T02:12:38;3.50;99.90
13835;DHT22;6988;52.614;13.500;2022-11-15T02:18:02;3.50;99.90
13835;DHT22;6988;52.614;13.500;2022-11-15T02:23:47;3.60;99.90
13835;DHT22;6988;52.614;13.500;2022-11-15T02:29:12;3.70;99.90
13835;DHT22;6988;52.614;13.500;2022-11-15T02:34:37;3.70;99.90
13835;DHT22;6988;52.614;13.500;2022-11-15T02:40:00;3.60;99.90
13835;DHT22;6988;52.614;13.500;2022-11-15T02:45:21;3.60;99.90
13835;DHT22;6988;52.614;13.500;2022-11-15T02:50:38;3.50;99.90
13835;DHT22;6988;52.614;13.500;2022-11-15T02:55:50;3.60;99.90
13835;DHT22;6988;52.614;13.500;2022-11-15T03:01:09;3.50;99.90
13835;DHT22;6988;52.614;13.500;2022-11-15T03:06:36;3.50;99.90
13835;DHT22;6988;52.614;13.500;2022-11-15T03:11:57;3.50;99.90
13835;DHT22;6988;52.614;13.500;2022-11-15T03:17:18;3.50;99.90
13835;DHT22;6988;52.614;13.500;2022-11-15T03:22:37;3.60;99.90
13835;DHT22;6988;52.614;13.500;2022-11-15T03:27:53;3.60;99.90
13835;DHT22;6988;52.614;13.500;2022-11-15T03:33:07;3.60;99.90
13835;DHT22;6988;52.614;13.500;2022-11-15T03:38:24;3.60;99.90
13835;DHT22;6988;52.614;13.500;2022-11-15T03:43:41;3.50;99.90
13835;DHT22;6988;52.614;13.500;2022-11-15T03:49:04;3.40;99.90
13835;DHT22;6988;52.614;13.500;2022-11-15T03:54:21;3.40;99.90
13835;DHT22;6988;52.614;13.500;2022-11-15T03:59:31;3.30;99.90
13835;DHT22;6988;52.614;13.500;2022-11-15T04:04:42;3.40;99.90
13835;DHT22;6988;52.614;13.500;2022-11-15T04:09:54;3.40;99.90
13835;DHT22;6988;52.614;13.500;2022-11-15T04:15:15;3.50;99.90
13835;DHT22;6988;52.614;13.500;2022-11-15T04:20:28;3.50;99.90
13835;DHT22;6988;52.614;13.500;2022-11-15T04:26:01;3.50;99.90
13835;DHT22;6988;52.614;13.500;2022-11-15T04:31:13;3.40;99.90
13835;DHT22;6988;52.614;13.500;2022-11-15T04:36:23;3.40;99.90
13835;DHT22;6988;52.614;13.500;2022-11-15T04:41:53;3.30;99.90
13835;DHT22;6988;52.614;13.500;2022-11-15T04:47:04;3.40;99.90
13835;DHT22;6988;52.614;13.500;2022-11-15T04:52:14;3.40;99.90
13835;DHT22;6988;52.614;13.500;2022-11-15T04:57:27;3.40;99.90
13835;DHT22;6988;52.614;13.500;2022-11-15T05:02:37;3.40;99.90
13835;DHT22;6988;52.614;13.500;2022-11-15T05:08:05;3.40;99.90
13835;DHT22;6988;52.614;13.500;2022-11-15T05:13:17;3.40;99.90
13835;DHT22;6988;52.614;13.500;2022-11-15T05:18:28;3.30;99.90
13835;DHT22;6988;52.614;13.500;2022-11-15T05:23:39;3.20;99.90
13835;DHT22;6988;52.614;13.500;2022-11-15T05:28:54;3.30;99.90
13835;DHT22;6988;52.614;13.500;2022-11-15T05:34:05;3.30;99.90
13835;DHT22;6988;52.614;13.500;2022-11-15T05:39:16;3.30;99.90
13835;DHT22;6988;52.614;13.500;2022-11-15T05:44:28;3.30;99.90
13835;DHT22;6988;52.614;13.500;2022-11-15T05:49:40;3.30;99.90
13835;DHT22;6988;52.614;13.500;2022-11-15T05:54:55;3.30;99.90
13835;DHT22;6988;52.614;13.500;2022-11-15T06:00:11;3.10;99.90
13835;DHT22;6988;52.614;13.500;2022-11-15T06:05:22;3.30;99.90
13835;DHT22;6988;52.614;13.500;2022-11-15T06:10:33;3.10;99.90
13835;DHT22;6988;52.614;13.500;2022-11-15T06:15:45;3.10;99.90
13835;DHT22;6988;52.614;13.500;2022-11-15T06:20:58;3.10;99.90
13835;DHT22;6988;52.614;13.500;2022-11-15T06:26:09;3.10;99.90
13835;DHT22;6988;52.614;13.500;2022-11-15T06:31:21;3.10;99.90
13835;DHT22;6988;52.614;13.500;2022-11-15T06:36:34;3.10;99.90
13835;DHT22;6988;52.614;13.500;2022-11-15T06:41:45;3.20;99.90
13835;DHT22;6988;52.614;13.500;2022-11-15T06:46:56;3.20;99.90
13835;DHT22;6988;52.614;13.500;2022-11-15T06:52:07;3.10;99.90
13835;DHT22;6988;52.614;13.500;2022-11-15T06:57:18;3.10;99.90
13835;DHT22;6988;52.614;13.500;2022-11-15T07:02:30;3.10;99.90
13835;DHT22;6988;52.614;13.500;2022-11-15T07:07:41;3.20;99.90
13835;DHT22;6988;52.614;13.500;2022-11-15T07:12:53;3.20;99.90
13835;DHT22;6988;52.614;13.500;2022-11-15T07:18:06;3.30;99.90
13835;DHT22;6988;52.614;13.500;2022-11-15T07:23:18;3.50;99.90
13835;DHT22;6988;52.614;13.500;2022-11-15T07:28:29;3.70;99.90
13835;DHT22;6988;52.614;13.500;2022-11-15T07:33:41;3.80;99.90
13835;DHT22;6988;52.614;13.500;2022-11-15T07:38:51;4.10;99.90
13835;DHT22;6988;52.614;13.500;2022-11-15T07:44:02;4.40;99.90
13835;DHT22;6988;52.614;13.500;2022-11-15T07:49:14;4.50;99.90
13835;DHT22;6988;52.614;13.500;2022-11-15T07:54:25;4.70;99.90
13835;DHT22;6988;52.614;13.500;2022-11-15T07:59:36;4.80;99.90
13835;DHT22;6988;52.614;13.500;2022-11-15T08:04:47;5.00;99.90
13835;DHT22;6988;52.614;13.500;2022-11-15T08:09:58;5.10;99.90
13835;DHT22;6988;52.614;13.500;2022-11-15T08:15:10;5.30;99.90
13835;DHT22;6988;52.614;13.500;2022-11-15T08:20:22;5.50;99.90
13835;DHT22;6988;52.614;13.500;2022-11-15T08:25:34;5.70;99.90
13835;DHT22;6988;52.614;13.500;2022-11-15T08:30:45;5.90;99.90
13835;DHT22;6988;52.614;13.500;2022-11-15T08:35:59;6.10;99.90
13835;DHT22;6988;52.614;13.500;2022-11-15T08:41:14;6.20;99.90
13835;DHT22;6988;52.614;13.500;2022-11-15T08:46:32;6.30;99.90
13835;DHT22;6988;52.614;13.500;2022-11-15T08:51:45;6.50;99.90
13835;DHT22;6988;52.614;13.500;2022-11-15T08:56:56;6.60;99.90
13835;DHT22;6988;52.614;13.500;2022-11-15T09:02:10;6.70;99.90
13835;DHT22;6988;52.614;13.500;2022-11-15T09:07:24;6.90;99.90
13835;DHT22;6988;52.614;13.500;2022-11-15T09:12:35;6.90;99.90
13835;DHT22;6988;52.614;13.500;2022-11-15T09:17:46;7.00;99.90
13835;DHT22;6988;52.614;13.500;2022-11-15T09:23:01;7.20;99.90
13835;DHT22;6988;52.614;13.500;2022-11-15T09:28:18;7.40;99.90
13835;DHT22;6988;52.614;13.500;2022-11-15T09:33:29;7.60;99.90
13835;DHT22;6988;52.614;13.500;2022-11-15T09:38:41;7.80;99.90
13835;DHT22;6988;52.614;13.500;2022-11-15T09:44:00;8.00;99.90
13835;DHT22;6988;52.614;13.500;2022-11-15T09:49:22;8.20;99.90
13835;DHT22;6988;52.614;13.500;2022-11-15T09:54:34;8.30;99.90
13835;DHT22;6988;52.614;13.500;2022-11-15T09:59:45;8.40;99.90
13835;DHT22;6988;52.614;13.500;2022-11-15T10:04:46;8.60;99.90
13835;DHT22;6988;52.614;13.500;2022-11-15T10:09:44;8.70;99.90
13835;DHT22;6988;52.614;13.500;2022-11-15T10:14:42;8.90;99.90
13835;DHT22;6988;52.614;13.500;2022-11-15T10:19:39;9.10;99.90
13835;DHT22;6988;52.614;13.500;2022-11-15T10:24:42;9.20;99.90
13835;DHT22;6988;52.614;13.500;2022-11-15T10:29:36;9.20;99.90
13835;DHT22;6988;52.614;13.500;2022-11-15T10:34:35;9.40;99.90
13835;DHT22;6988;52.614;13.500;2022-11-15T10:39:29;9.50;99.90
13835;DHT22;6988;52.614;13.500;2022-11-15T10:44:27;9.60;99.90
13835;DHT22;6988;52.614;13.500;2022-11-15T10:49:22;9.80;99.90
13835;DHT22;6988;52.614;13.500;2022-11-15T10:54:20;9.80;99.90
13835;DHT22;6988;52.614;13.500;2022-11-15T10:59:23;9.80;99.90
13835;DHT22;6988;52.614;13.500;2022-11-15T11:04:22;9.90;99.90
13835;DHT22;6988;52.614;13.500;2022-11-15T11:09:23;10.10;99.90
13835;DHT22;6988;52.614;13.500;2022-11-15T11:14:23;10.10;99.90
13835;DHT22;6988;52.614;13.500;2022-11-15T11:19:42;10.30;99.90
13835;DHT22;6988;52.614;13.500;2022-11-15T11:24:47;10.30;99.90
13835;DHT22;6988;52.614;13.500;2022-11-15T11:30:06;10.40;99.90
13835;DHT22;6988;52.614;13.500;2022-11-15T11:35:11;10.60;99.90
13835;DHT22;6988;52.614;13.500;2022-11-15T11:40:16;10.90;99.90
13835;DHT22;6988;52.614;13.500;2022-11-15T11:45:26;11.10;99.90
13835;DHT22;6988;52.614;13.500;2022-11-15T11:50:32;11.40;99.90
13835;DHT22;6988;52.614;13.500;2022-11-15T11:55:31;11.70;99.90
13835;DHT22;6988;52.614;13.500;2022-11-15T12:00:27;12.00;99.90
13835;DHT22;6988;52.614;13.500;2022-11-15T12:05:26;12.10;99.90
13835;DHT22;6988;52.614;13.500;2022-11-15T12:10:29;12.30;99.90
13835;DHT22;6988;52.614;13.500;2022-11-15T12:15:25;12.40;99.90
13835;DHT22;6988;52.614;13.500;2022-11-15T12:20:23;12.60;99.90
13835;DHT22;6988;52.614;13.500;2022-11-15T12:25:22;12.70;99.90
13835;DHT22;6988;52.614;13.500;2022-11-15T12:30:21;12.80;99.90
13835;DHT22;6988;52.614;13.500;2022-11-15T12:35:24;12.90;99.90
13835;DHT22;6988;52.614;13.500;2022-11-15T12:40:26;12.90;99.90
13835;DHT22;6988;52.614;13.500;2022-11-15T12:45:27;13.00;99.90
13835;DHT22;6988;52.614;13.500;2022-11-15T12:50:54;13.10;99.90
13835;DHT22;6988;52.614;13.500;2022-11-15T12:56:09;13.10;99.90
13835;DHT22;6988;52.614;13.500;2022-11-15T13:06:50;13.10;99.90
13835;DHT22;6988;52.614;13.500;2022-11-15T13:11:51;13.10;99.90
13835;DHT22;6988;52.614;13.500;2022-11-15T13:16:44;13.20;99.90
13835;DHT22;6988;52.614;13.500;2022-11-15T13:21:48;13.10;99.90
13835;DHT22;6988;52.614;13.500;2022-11-15T13:26:59;13.00;99.90
13835;DHT22;6988;52.614;13.500;2022-11-15T13:31:51;13.00;99.90
13835;DHT22;6988;52.614;13.500;2022-11-15T13:36:43;12.90;99.90
13835;DHT22;6988;52.614;13.500;2022-11-15T13:41:36;12.90;99.90
13835;DHT22;6988;52.614;13.500;2022-11-15T13:46:39;12.80;99.90
13835;DHT22;6988;52.614;13.500;2022-11-15T13:51:36;12.70;99.90
13835;DHT22;6988;52.614;13.500;2022-11-15T13:56:30;12.70;99.90
13835;DHT22;6988;52.614;13.500;2022-11-15T14:01:25;12.60;99.90
13835;DHT22;6988;52.614;13.500;2022-11-15T14:06:25;12.50;99.90
13835;DHT22;6988;52.614;13.500;2022-11-15T14:11:20;12.40;99.90
13835;DHT22;6988;52.614;13.500;2022-11-15T14:16:16;12.20;99.90
13835;DHT22;6988;52.614;13.500;2022-11-15T14:21:10;12.00;99.90
13835;DHT22;6988;52.614;13.500;2022-11-15T14:26:04;12.00;99.90
13835;DHT22;6988;52.614;13.500;2022-11-15T14:30:58;11.90;99.90
13835;DHT22;6988;52.614;13.500;2022-11-15T14:35:52;11.80;99.90
13835;DHT22;6988;52.614;13.500;2022-11-15T14:40:44;11.70;99.90
13835;DHT22;6988;52.614;13.500;2022-11-15T14:45:38;11.60;99.90
13835;DHT22;6988;52.614;13.500;2022-11-15T14:50:33;11.20;99.90
13835;DHT22;6988;52.614;13.500;2022-11-15T14:55:27;11.10;99.90
13835;DHT22;6988;52.614;13.500;2022-11-15T15:00:22;10.90;99.90
13835;DHT22;6988;52.614;13.500;2022-11-15T15:05:20;10.60;99.90
13835;DHT22;6988;52.614;13.500;2022-11-15T15:10:14;10.30;99.90
13835;DHT22;6988;52.614;13.500;2022-11-15T15:15:12;10.10;99.90
13835;DHT22;6988;52.614;13.500;2022-11-15T15:20:06;9.90;99.90
13835;DHT22;6988;52.614;13.500;2022-11-15T15:25:00;9.70;99.90
13835;DHT22;6988;52.614;13.500;2022-11-15T15:29:52;9.60;99.90
13835;DHT22;6988;52.614;13.500;2022-11-15T15:34:47;9.50;99.90
13835;DHT22;6988;52.614;13.500;2022-11-15T15:39:40;9.30;99.90
13835;DHT22;6988;52.614;13.500;2022-11-15T15:44:33;9.20;99.90
13835;DHT22;6988;52.614;13.500;2022-11-15T15:49:25;9.00;99.90
13835;DHT22;6988;52.614;13.500;2022-11-15T15:54:17;8.90;99.90
13835;DHT22;6988;52.614;13.500;2022-11-15T15:59:09;8.90;99.90
13835;DHT22;6988;52.614;13.500;2022-11-15T16:04:02;8.80;99.90
13835;DHT22;6988;52.614;13.500;2022-11-15T16:08:54;8.60;99.90
13835;DHT22;6988;52.614;13.500;2022-11-15T16:13:45;8.60;99.90
13835;DHT22;6988;52.614;13.500;2022-11-15T16:18:37;8.40;99.90
13835;DHT22;6988;52.614;13.500;2022-11-15T16:23:30;8.20;99.90
13835;DHT22;6988;52.614;13.500;2022-11-15T16:28:23;8.10;99.90
13835;DHT22;6988;52.614;13.500;2022-11-15T16:33:16;7.90;99.90
13835;DHT22;6988;52.614;13.500;2022-11-15T16:38:14;7.80;99.90
13835;DHT22;6988;52.614;13.500;2022-11-15T16:43:08;7.80;99.90
13835;DHT22;6988;52.614;13.500;2022-11-15T16:48:00;7.60;99.90
13835;DHT22;6988;52.614;13.500;2022-11-15T16:52:53;7.40;99.90
13835;DHT22;6988;52.614;13.500;2022-11-15T16:57:46;7.20;99.90
13835;DHT22;6988;52.614;13.500;2022-11-15T17:02:39;7.00;99.90
13835;DHT22;6988;52.614;13.500;2022-11-15T17:07:31;6.90;99.90
13835;DHT22;6988;52.614;13.500;2022-11-15T17:12:22;6.80;99.90
13835;DHT22;6988;52.614;13.500;2022-11-15T17:17:14;6.80;99.90
13835;DHT22;6988;52.614;13.500;2022-11-15T17:22:07;6.90;99.90
13835;DHT22;6988;52.614;13.500;2022-11-15T17:26:59;6.90;99.90
13835;DHT22;6988;52.614;13.500;2022-11-15T17:31:51;6.80;99.90
13835;DHT22;6988;52.614;13.500;2022-11-15T17:36:42;6.70;99.90
13835;DHT22;6988;52.614;13.500;2022-11-15T17:41:36;6.60;99.90
13835;DHT22;6988;52.614;13.500;2022-11-15T17:46:28;6.50;99.90
13835;DHT22;6988;52.614;13.500;2022-11-15T17:51:20;6.40;99.90
13835;DHT22;6988;52.614;13.500;2022-11-15T17:56:15;6.30;99.90
13835;DHT22;6988;52.614;13.500;2022-11-15T18:01:13;6.20;99.90
13835;DHT22;6988;52.614;13.500;2022-11-15T18:06:08;6.10;99.90
13835;DHT22;6988;52.614;13.500;2022-11-15T18:11:05;6.00;99.90
13835;DHT22;6988;52.614;13.500;2022-11-15T18:16:00;6.00;99.90
13835;DHT22;6988;52.614;13.500;2022-11-15T18:21:02;6.00;99.90
13835;DHT22;6988;52.614;13.500;2022-11-15T18:25:55;6.00;99.90
13835;DHT22;6988;52.614;13.500;2022-11-15T18:30:47;6.00;99.90
13835;DHT22;6988;52.614;13.500;2022-11-15T18:35:39;5.90;99.90
13835;DHT22;6988;52.614;13.500;2022-11-15T18:40:32;5.90;99.90
13835;DHT22;6988;52.614;13.500;2022-11-15T18:45:24;6.00;99.90
13835;DHT22;6988;52.614;13.500;2022-11-15T18:50:16;6.00;99.90
13835;DHT22;6988;52.614;13.500;2022-11-15T18:55:08;6.00;99.90
13835;DHT22;6988;52.614;13.500;2022-11-15T19:00:07;6.10;99.90
13835;DHT22;6988;52.614;13.500;2022-11-15T19:05:00;6.10;99.90
13835;DHT22;6988;52.614;13.500;2022-11-15T19:09:51;6.20;99.90
13835;DHT22;6988;52.614;13.500;2022-11-15T19:14:43;6.20;99.90
13835;DHT22;6988;52.614;13.500;2022-11-15T19:19:36;6.30;99.90
13835;DHT22;6988;52.614;13.500;2022-11-15T19:24:28;6.40;99.90
13835;DHT22;6988;52.614;13.500;2022-11-15T19:29:20;6.30;99.90
13835;DHT22;6988;52.614;13.500;2022-11-15T19:34:12;6.30;99.90
13835;DHT22;6988;52.614;13.500;2022-11-15T19:39:06;6.40;99.90
13835;DHT22;6988;52.614;13.500;2022-11-15T19:44:01;6.40;99.90
13835;DHT22;6988;52.614;13.500;2022-11-15T19:48:53;6.40;99.90
13835;DHT22;6988;52.614;13.500;2022-11-15T19:53:47;6.40;99.90
13835;DHT22;6988;52.614;13.500;2022-11-15T19:58:41;6.40;99.90
13835;DHT22;6988;52.614;13.500;2022-11-15T20:03:34;6.30;99.90
13835;DHT22;6988;52.614;13.500;2022-11-15T20:08:26;6.20;99.90
13835;DHT22;6988;52.614;13.500;2022-11-15T20:13:18;6.20;99.90
13835;DHT22;6988;52.614;13.500;2022-11-15T20:18:11;6.20;99.90
13835;DHT22;6988;52.614;13.500;2022-11-15T20:23:03;6.20;99.90
13835;DHT22;6988;52.614;13.500;2022-11-15T20:27:55;6.10;99.90
13835;DHT22;6988;52.614;13.500;2022-11-15T20:32:47;6.20;99.90
13835;DHT22;6988;52.614;13.500;2022-11-15T20:37:40;6.30;99.90
13835;DHT22;6988;52.614;13.500;2022-11-15T20:42:32;6.10;99.90
13835;DHT22;6988;52.614;13.500;2022-11-15T20:47:24;6.10;99.90
13835;DHT22;6988;52.614;13.500;2022-11-15T20:52:16;6.10;99.90
13835;DHT22;6988;52.614;13.500;2022-11-15T20:57:09;6.10;99.90
13835;DHT22;6988;52.614;13.500;2022-11-15T21:02:01;6.10;99.90
13835;DHT22;6988;52.614;13.500;2022-11-15T21:06:53;6.20;99.90
13835;DHT22;6988;52.614;13.500;2022-11-15T21:11:45;6.10;99.90
13835;DHT22;6988;52.614;13.500;2022-11-15T21:16:56;6.00;99.90
13835;DHT22;6988;52.614;13.500;2022-11-15T21:21:48;6.10;99.90
13835;DHT22;6988;52.614;13.500;2022-11-15T21:26:41;6.10;99.90
13835;DHT22;6988;52.614;13.500;2022-11-15T21:31:33;6.10;99.90
13835;DHT22;6988;52.614;13.500;2022-11-15T21:36:26;6.10;99.90
13835;DHT22;6988;52.614;13.500;2022-11-15T21:41:18;6.10;99.90
13835;DHT22;6988;52.614;13.500;2022-11-15T21:46:09;6.20;99.90
13835;DHT22;6988;52.614;13.500;2022-11-15T21:51:03;6.10;99.90
13835;DHT22;6988;52.614;13.500;2022-11-15T21:55:58;6.10;99.90
13835;DHT22;6988;52.614;13.500;2022-11-15T22:00:53;6.10;99.90
13835;DHT22;6988;52.614;13.500;2022-11-15T22:06:03;6.10;99.90
13835;DHT22;6988;52.614;13.500;2022-11-15T22:10:57;6.10;99.90
13835;DHT22;6988;52.614;13.500;2022-11-15T22:15:49;6.00;99.90
13835;DHT22;6988;52.614;13.500;2022-11-15T22:20:51;6.10;99.90
13835;DHT22;6988;52.614;13.500;2022-11-15T22:25:44;6.00;99.90
13835;DHT22;6988;52.614;13.500;2022-11-15T22:30:38;6.00;99.90
13835;DHT22;6988;52.614;13.500;2022-11-15T22:35:32;6.00;99.90
13835;DHT22;6988;52.614;13.500;2022-11-15T22:40:25;6.00;99.90
13835;DHT22;6988;52.614;13.500;2022-11-15T22:45:17;5.90;99.90
13835;DHT22;6988;52.614;13.500;2022-11-15T23:05:17;5.80;99.90
13835;DHT22;6988;52.614;13.500;2022-11-15T23:10:09;5.90;99.90
13835;DHT22;6988;52.614;13.500;2022-11-15T23:15:18;5.90;99.90
13835;DHT22;6988;52.614;13.500;2022-11-15T23:20:10;5.90;99.90
13835;DHT22;6988;52.614;13.500;2022-11-15T23:25:04;6.00;99.90
13835;DHT22;6988;52.614;13.500;2022-11-15T23:29:56;6.10;99.90
13835;DHT22;6988;52.614;13.500;2022-11-15T23:35:06;6.10;99.90
13835;DHT22;6988;52.614;13.500;2022-11-15T23:39:58;5.90;99.90
13835;DHT22;6988;52.614;13.500;2022-11-15T23:44:51;5.90;99.90
13835;DHT22;6988;52.614;13.500;2022-11-15T23:49:43;5.90;99.90
13835;DHT22;6988;52.614;13.500;2022-11-15T23:54:35;5.90;99.90
13835;DHT22;6988;52.614;13.500;2022-11-15T23:59:27;5.90;99.90
